Time;durP1;ratioP1;P1;durP2;ratioP2;P2;SDS_P1;SDS_P2;PMS_P1;PMS_P2;Temp;Humidity;BMP_temperature;BMP_pressure;BME280_temperature;BME280_humidity;BME280_pressure;Samples;Min_cycle;Max_cycle;Signal;HPM_P1;HPM_P2
2021/08/02 00:00:24;;;;;;;3.60;3.30;;;19.60;99.90;;;;;;5106625;28;20453;-64
2021/08/02 00:03:00;;;;;;;3.70;3.40;;;19.60;99.90;;;;;;5104833;27;20466;-64
2021/08/02 00:05:28;;;;;;;4.67;4.27;;;19.60;99.90;;;;;;5099449;28;20929;-64
2021/08/02 00:07:58;;;;;;;3.23;3.03;;;19.60;99.90;;;;;;5109080;28;20545;-65
2021/08/02 00:10:28;;;;;;;4.13;3.83;;;19.50;99.90;;;;;;5107432;28;20465;-65
2021/08/02 00:13:00;;;;;;;3.00;2.80;;;19.50;99.90;;;;;;5105902;28;20465;-65
2021/08/02 00:15:28;;;;;;;3.03;2.80;;;19.50;99.90;;;;;;5101662;28;20552;-66
2021/08/02 00:17:55;;;;;;;3.47;3.17;;;19.50;99.90;;;;;;5105520;28;20526;-66
2021/08/02 00:20:28;;;;;;;2.83;2.60;;;19.50;99.90;;;;;;5112935;27;20494;-66
2021/08/02 00:22:57;;;;;;;3.57;3.27;;;19.50;99.90;;;;;;5110734;28;20543;-65
2021/08/02 00:25:25;;;;;;;3.70;3.40;;;19.50;99.90;;;;;;5107837;28;20471;-66
2021/08/02 00:27:54;;;;;;;4.37;3.97;;;19.40;99.90;;;;;;5112304;28;20464;-66
2021/08/02 00:30:24;;;;;;;3.67;3.20;;;19.50;99.90;;;;;;5100093;28;20858;-66
2021/08/02 00:32:51;;;;;;;3.20;2.60;;;19.40;99.90;;;;;;5109353;28;20490;-66
2021/08/02 00:35:18;;;;;;;4.70;3.50;;;19.40;99.90;;;;;;5112721;28;20505;-66
2021/08/02 00:37:50;;;;;;;4.47;3.50;;;19.40;99.90;;;;;;5104677;28;20504;-66
2021/08/02 00:40:54;;;;;;;3.30;3.00;;;19.40;99.90;;;;;;5100508;28;20465;-65
2021/08/02 00:43:41;;;;;;;3.67;3.37;;;19.40;99.90;;;;;;5067867;28;20949;-66
2021/08/02 00:46:13;;;;;;;3.30;3.10;;;19.40;99.90;;;;;;5092693;28;20519;-65
2021/08/02 00:48:45;;;;;;;4.23;3.83;;;19.40;99.90;;;;;;5106348;28;20464;-65
2021/08/02 00:51:13;;;;;;;4.63;4.23;;;19.40;99.90;;;;;;5105952;28;20472;-66
2021/08/02 00:53:41;;;;;;;4.33;3.93;;;19.40;99.90;;;;;;5099064;28;21358;-66
2021/08/02 00:56:08;;;;;;;3.07;2.87;;;19.40;99.90;;;;;;5104390;28;20875;-65
2021/08/02 00:58:37;;;;;;;6.50;5.53;;;19.30;99.90;;;;;;5108750;28;20989;-65
2021/08/02 01:01:04;;;;;;;5.60;4.30;;;19.40;99.90;;;;;;5107687;28;20537;-66
2021/08/02 01:03:32;;;;;;;5.93;5.33;;;19.40;99.90;;;;;;5109537;27;20513;-66
2021/08/02 01:05:59;;;;;;;3.63;3.33;;;19.30;99.90;;;;;;5102246;28;20464;-66
2021/08/02 01:08:29;;;;;;;6.63;5.70;;;19.30;99.90;;;;;;5106671;28;20837;-66
2021/08/02 01:11:02;;;;;;;7.50;6.63;;;19.30;99.90;;;;;;5102057;28;20951;-66
2021/08/02 01:13:33;;;;;;;7.10;6.43;;;19.30;99.90;;;;;;5105818;28;20465;-66
2021/08/02 01:16:03;;;;;;;6.50;5.90;;;19.30;99.90;;;;;;5102177;28;20472;-66
2021/08/02 01:18:33;;;;;;;5.43;4.93;;;19.30;99.90;;;;;;5111116;27;20467;-66
2021/08/02 01:21:05;;;;;;;4.27;3.90;;;19.20;99.90;;;;;;5112708;27;20457;-66
2021/08/02 01:23:34;;;;;;;8.20;7.37;;;19.30;99.90;;;;;;5103888;28;20461;-66
2021/08/02 01:26:41;;;;;;;5.20;4.70;;;19.30;99.90;;;;;;5108941;28;20464;-66
2021/08/02 01:29:45;;;;;;;6.80;5.83;;;19.20;99.90;;;;;;5110169;28;20547;-66
2021/08/02 01:32:12;;;;;;;7.07;5.50;;;19.20;99.90;;;;;;5100969;28;20469;-66
2021/08/02 01:34:39;;;;;;;5.43;5.03;;;19.20;99.90;;;;;;5110403;28;20464;-66
2021/08/02 01:37:06;;;;;;;4.63;4.23;;;19.20;99.90;;;;;;5111992;28;20468;-66
2021/08/02 01:39:36;;;;;;;3.70;3.47;;;19.20;99.90;;;;;;5100461;28;20954;-66
2021/08/02 01:42:04;;;;;;;4.77;4.37;;;19.20;99.90;;;;;;5114905;28;20521;-66
2021/08/02 01:44:31;;;;;;;4.47;4.07;;;19.20;99.90;;;;;;5108123;28;20475;-66
2021/08/02 01:47:05;;;;;;;4.07;3.77;;;19.20;99.90;;;;;;5102155;28;20476;-66
2021/08/02 01:49:38;;;;;;;4.23;3.83;;;19.20;99.90;;;;;;5106444;28;20537;-66
2021/08/02 01:52:11;;;;;;;3.80;3.50;;;19.20;99.90;;;;;;5109388;27;20461;-66
2021/08/02 01:54:45;;;;;;;4.53;3.77;;;19.20;99.90;;;;;;5115847;28;20464;-66
2021/08/02 01:57:20;;;;;;;3.57;3.30;;;19.20;99.90;;;;;;5109703;27;20468;-66
2021/08/02 01:59:54;;;;;;;4.80;3.60;;;19.10;99.90;;;;;;5114553;28;20559;-66
2021/08/02 02:02:21;;;;;;;6.63;5.87;;;19.20;99.90;;;;;;5109421;27;21277;-66
2021/08/02 02:04:54;;;;;;;4.07;3.67;;;19.10;99.90;;;;;;5114294;28;20456;-66
2021/08/02 02:07:22;;;;;;;3.80;3.50;;;19.20;99.90;;;;;;5098437;28;20518;-65
2021/08/02 02:09:53;;;;;;;3.47;3.27;;;19.10;99.90;;;;;;5103444;28;20476;-64
2021/08/02 02:12:21;;;;;;;6.43;4.23;;;19.20;99.90;;;;;;5113812;28;20456;-64
2021/08/02 02:14:51;;;;;;;3.03;2.83;;;19.20;99.90;;;;;;5114399;28;20525;-66
2021/08/02 02:17:20;;;;;;;4.50;3.70;;;19.20;99.90;;;;;;5107678;27;20457;-66
2021/08/02 02:19:50;;;;;;;3.47;3.17;;;19.20;99.90;;;;;;5110844;27;20990;-67
2021/08/02 02:22:17;;;;;;;3.50;3.20;;;19.20;99.90;;;;;;5106069;27;20508;-65
2021/08/02 02:24:46;;;;;;;6.87;4.10;;;19.20;99.90;;;;;;5111152;28;20468;-66
2021/08/02 02:27:15;;;;;;;3.23;3.03;;;19.20;99.90;;;;;;5127542;27;20865;-65
2021/08/02 02:29:44;;;;;;;3.80;3.50;;;19.20;99.90;;;;;;5107976;28;20791;-65
2021/08/02 02:32:12;;;;;;;5.30;4.20;;;19.20;99.90;;;;;;5112822;27;20460;-65
2021/08/02 02:34:40;;;;;;;4.77;4.33;;;19.20;99.90;;;;;;5102948;28;20521;-65
2021/08/02 02:37:08;;;;;;;4.53;3.37;;;19.20;99.90;;;;;;5105418;28;20934;-65
2021/08/02 02:39:36;;;;;;;3.93;3.63;;;19.20;99.90;;;;;;5115131;27;20465;-66
2021/08/02 02:42:03;;;;;;;4.03;3.63;;;19.20;99.90;;;;;;5106797;27;21011;-64
2021/08/02 02:44:32;;;;;;;6.20;5.07;;;19.20;99.90;;;;;;5112052;27;21009;-67
2021/08/02 02:47:01;;;;;;;4.67;4.23;;;19.20;99.90;;;;;;5111760;28;20970;-65
2021/08/02 02:49:28;;;;;;;9.63;7.07;;;19.20;99.90;;;;;;5111683;28;20493;-66
2021/08/02 02:51:57;;;;;;;5.80;4.70;;;19.20;99.90;;;;;;5113579;28;20867;-66
2021/08/02 02:54:25;;;;;;;11.87;9.60;;;19.20;99.90;;;;;;5103452;27;20492;-66
2021/08/02 02:56:54;;;;;;;5.73;4.10;;;19.20;99.90;;;;;;5111875;28;20540;-66
2021/08/02 02:59:21;;;;;;;3.60;3.30;;;19.20;99.90;;;;;;5101797;28;20477;-66
2021/08/02 03:01:51;;;;;;;5.20;3.90;;;19.20;99.90;;;;;;5107304;28;20495;-65
2021/08/02 03:04:20;;;;;;;5.73;5.20;;;19.30;99.90;;;;;;5105483;28;20562;-65
2021/08/02 03:06:47;;;;;;;4.07;3.70;;;19.20;99.90;;;;;;5100123;28;20460;-65
2021/08/02 03:09:19;;;;;;;6.87;5.80;;;19.20;99.90;;;;;;5100538;28;20473;-65
2021/08/02 03:11:48;;;;;;;10.63;6.73;;;19.20;99.90;;;;;;5100496;28;20490;-64
2021/08/02 03:14:15;;;;;;;9.57;8.23;;;19.20;99.90;;;;;;5113745;28;20468;-66
2021/08/02 03:16:42;;;;;;;9.30;7.33;;;19.20;99.90;;;;;;5101292;28;20464;-66
2021/08/02 03:19:10;;;;;;;4.70;4.30;;;19.20;99.90;;;;;;5110352;27;20817;-66
2021/08/02 03:21:37;;;;;;;6.00;5.40;;;19.20;99.90;;;;;;5114441;27;20494;-66
2021/08/02 03:24:12;;;;;;;7.83;5.50;;;19.10;99.90;;;;;;5112909;28;20468;-66
2021/08/02 03:26:44;;;;;;;9.87;6.90;;;19.10;99.90;;;;;;5104843;28;20547;-64
2021/08/02 03:29:18;;;;;;;6.33;5.20;;;19.10;99.90;;;;;;5110405;28;20503;-65
2021/08/02 03:31:47;;;;;;;4.33;3.93;;;19.10;99.90;;;;;;5104790;28;20537;-65
2021/08/02 03:34:21;;;;;;;5.20;4.80;;;19.10;99.90;;;;;;5099763;27;20576;-66
2021/08/02 03:36:50;;;;;;;7.03;6.33;;;19.10;99.90;;;;;;5101896;28;20543;-66
2021/08/02 03:39:18;;;;;;;4.70;4.33;;;19.10;99.90;;;;;;5106760;28;20506;-66
2021/08/02 03:41:46;;;;;;;4.87;4.43;;;19.00;99.90;;;;;;5106841;28;20776;-65
2021/08/02 03:44:14;;;;;;;3.80;3.50;;;19.00;99.90;;;;;;5106820;27;20613;-65
2021/08/02 03:46:42;;;;;;;4.63;3.47;;;19.00;99.90;;;;;;5106834;28;20472;-65
2021/08/02 03:49:09;;;;;;;3.73;3.20;;;19.00;99.90;;;;;;5102110;27;20469;-65
2021/08/02 03:51:44;;;;;;;3.37;3.07;;;18.90;99.90;;;;;;5109200;27;20467;-65
2021/08/02 03:54:12;;;;;;;4.33;3.73;;;18.90;99.90;;;;;;5112112;27;20468;-64
2021/08/02 03:56:40;;;;;;;5.43;3.30;;;18.90;99.90;;;;;;5108369;28;21017;-65
2021/08/02 03:59:07;;;;;;;3.30;3.00;;;18.90;99.90;;;;;;5108930;27;20987;-65
2021/08/02 04:01:38;;;;;;;4.43;4.03;;;18.80;99.90;;;;;;5103407;28;20469;-65
2021/08/02 04:04:06;;;;;;;3.40;3.10;;;18.80;99.90;;;;;;5112448;27;20875;-64
2021/08/02 04:06:33;;;;;;;3.73;3.07;;;18.70;99.90;;;;;;5110374;27;20469;-66
2021/08/02 04:09:01;;;;;;;3.90;3.43;;;18.70;99.90;;;;;;5107301;28;20534;-65
2021/08/02 04:11:28;;;;;;;4.50;3.30;;;18.70;99.90;;;;;;5099151;28;20463;-65
2021/08/02 04:13:55;;;;;;;3.93;3.47;;;18.70;99.90;;;;;;5112395;28;20467;-65
2021/08/02 04:16:23;;;;;;;3.13;2.93;;;18.70;99.90;;;;;;5105942;28;20471;-65
2021/08/02 04:18:49;;;;;;;2.97;2.77;;;18.70;99.90;;;;;;5102783;27;21146;-65
2021/08/02 04:21:17;;;;;;;2.83;2.63;;;18.70;99.90;;;;;;5107920;27;20512;-65
2021/08/02 04:23:44;;;;;;;3.10;2.90;;;18.70;99.90;;;;;;5111031;28;20972;-65
2021/08/02 04:26:12;;;;;;;3.20;2.90;;;18.70;99.90;;;;;;5105685;27;20521;-66
2021/08/02 04:28:39;;;;;;;3.30;2.30;;;18.70;99.90;;;;;;5104954;28;21000;-66
2021/08/02 04:31:06;;;;;;;4.70;4.23;;;18.70;99.90;;;;;;5103331;28;20479;-66
2021/08/02 04:33:33;;;;;;;6.00;5.40;;;18.70;99.90;;;;;;5112967;28;20455;-65
2021/08/02 04:36:00;;;;;;;4.27;3.90;;;18.70;99.90;;;;;;5106501;28;21027;-65
2021/08/02 04:38:27;;;;;;;3.20;2.90;;;18.80;99.90;;;;;;5103023;27;20471;-65
2021/08/02 04:40:55;;;;;;;2.77;2.53;;;18.80;99.90;;;;;;5099436;28;20479;-66
2021/08/02 04:43:23;;;;;;;3.10;2.77;;;18.80;99.90;;;;;;5096616;27;20467;-66
2021/08/02 04:45:50;;;;;;;5.93;4.40;;;18.80;99.90;;;;;;5102311;28;20530;-65
2021/08/02 04:48:17;;;;;;;5.23;4.60;;;18.80;99.90;;;;;;5111325;28;20469;-65
2021/08/02 04:50:46;;;;;;;9.73;5.60;;;18.90;99.90;;;;;;5100005;28;20465;-65
2021/08/02 04:53:13;;;;;;;4.33;3.40;;;18.90;99.90;;;;;;5098861;28;20462;-66
2021/08/02 04:55:42;;;;;;;4.97;3.07;;;18.90;99.90;;;;;;5105265;28;20846;-66
2021/08/02 04:58:09;;;;;;;3.67;3.03;;;18.90;99.90;;;;;;5107234;27;20482;-65
2021/08/02 05:00:37;;;;;;;2.23;2.10;;;18.90;99.90;;;;;;5112696;28;20471;-65
2021/08/02 05:03:04;;;;;;;3.10;2.70;;;18.90;99.90;;;;;;5099847;28;20811;-66
2021/08/02 05:05:31;;;;;;;3.50;2.57;;;18.90;99.90;;;;;;5105663;28;20846;-65
2021/08/02 05:07:58;;;;;;;4.33;3.30;;;18.90;99.90;;;;;;5105544;28;20479;-66
2021/08/02 05:10:25;;;;;;;3.90;3.20;;;18.90;99.90;;;;;;5092548;28;20480;-65
2021/08/02 05:12:53;;;;;;;3.50;2.90;;;19.00;99.90;;;;;;5091899;28;20841;-65
2021/08/02 05:15:20;;;;;;;4.73;3.20;;;19.00;99.90;;;;;;5092049;28;20468;-66
2021/08/02 05:17:48;;;;;;;3.53;3.27;;;19.00;99.90;;;;;;5096477;28;22165;-65
2021/08/02 05:20:18;;;;;;;3.03;2.77;;;19.00;99.90;;;;;;5095517;28;20527;-66
2021/08/02 05:22:45;;;;;;;3.73;3.17;;;19.00;99.90;;;;;;5096509;28;20458;-66
2021/08/02 05:25:12;;;;;;;8.83;4.60;;;19.10;99.90;;;;;;5095863;28;20526;-66
2021/08/02 05:27:39;;;;;;;3.40;2.40;;;19.10;99.90;;;;;;5096330;28;20464;-65
2021/08/02 05:30:07;;;;;;;3.10;2.90;;;19.10;99.90;;;;;;5096392;28;20484;-65
2021/08/02 05:32:34;;;;;;;3.53;3.10;;;19.20;99.90;;;;;;5095976;28;20472;-65
2021/08/02 05:35:03;;;;;;;3.70;3.40;;;19.20;99.90;;;;;;5096123;28;20518;-66
2021/08/02 05:37:29;;;;;;;4.70;4.30;;;19.20;99.90;;;;;;5095714;28;20465;-66
2021/08/02 05:39:56;;;;;;;3.80;3.50;;;19.20;99.90;;;;;;5096192;28;21063;-65
2021/08/02 05:42:23;;;;;;;6.50;3.57;;;19.20;99.90;;;;;;5095518;28;20530;-66
2021/08/02 05:44:50;;;;;;;3.90;2.90;;;19.30;99.90;;;;;;5096169;28;20564;-66
2021/08/02 05:47:18;;;;;;;6.57;3.70;;;19.30;99.90;;;;;;5095445;28;20538;-66
2021/08/02 05:49:45;;;;;;;5.63;2.93;;;19.30;99.90;;;;;;5095983;28;20867;-66
2021/08/02 05:52:13;;;;;;;3.47;2.70;;;19.40;99.90;;;;;;5095802;28;20967;-66
2021/08/02 05:54:40;;;;;;;3.53;2.80;;;19.50;99.90;;;;;;5095419;28;20461;-66
2021/08/02 05:57:07;;;;;;;4.23;3.20;;;19.50;99.90;;;;;;5095954;28;20534;-66
2021/08/02 05:59:35;;;;;;;3.30;2.90;;;19.50;99.90;;;;;;5095382;28;20978;-65
2021/08/02 06:02:02;;;;;;;3.17;2.90;;;19.60;99.90;;;;;;5095684;28;20465;-66
2021/08/02 06:04:29;;;;;;;3.93;3.10;;;19.70;99.90;;;;;;5095238;28;20510;-66
2021/08/02 06:06:56;;;;;;;4.80;3.40;;;19.70;99.90;;;;;;5095691;28;20538;-66
2021/08/02 06:09:24;;;;;;;3.43;3.00;;;19.70;99.90;;;;;;5095136;28;20461;-66
2021/08/02 06:11:51;;;;;;;3.37;3.07;;;19.80;99.90;;;;;;5095359;28;20481;-65
2021/08/02 06:14:18;;;;;;;2.90;2.70;;;19.80;99.90;;;;;;5095064;28;20504;-66
2021/08/02 06:16:45;;;;;;;5.23;2.77;;;19.90;99.90;;;;;;5095522;28;20690;-66
2021/08/02 06:19:12;;;;;;;5.23;2.63;;;19.80;99.90;;;;;;5095260;28;20457;-66
2021/08/02 06:21:39;;;;;;;3.13;2.50;;;19.80;99.90;;;;;;5094971;28;20469;-66
2021/08/02 06:24:07;;;;;;;3.17;2.30;;;19.80;99.90;;;;;;5095227;28;20475;-65
2021/08/02 06:26:36;;;;;;;2.20;2.00;;;19.90;99.90;;;;;;5094602;28;20534;-66
2021/08/02 06:29:04;;;;;;;3.10;2.53;;;19.90;99.90;;;;;;5095048;28;20792;-66
2021/08/02 06:31:31;;;;;;;2.50;2.30;;;19.90;99.90;;;;;;5094520;28;20803;-66
2021/08/02 06:33:58;;;;;;;3.33;3.03;;;19.90;99.90;;;;;;5095186;28;20523;-66
2021/08/02 06:36:25;;;;;;;4.27;2.67;;;20.00;99.90;;;;;;5094498;28;20477;-65
2021/08/02 06:38:52;;;;;;;3.30;2.40;;;20.10;99.90;;;;;;5094687;28;20526;-66
2021/08/02 06:41:19;;;;;;;2.73;2.13;;;20.10;99.90;;;;;;5094652;28;20468;-65
2021/08/02 06:43:47;;;;;;;3.47;2.77;;;20.20;99.90;;;;;;5094612;28;20457;-66
2021/08/02 06:46:14;;;;;;;5.93;3.13;;;20.30;99.90;;;;;;5094693;28;20486;-66
2021/08/02 06:48:41;;;;;;;3.70;3.20;;;20.40;99.90;;;;;;5094312;28;20980;-65
2021/08/02 06:51:08;;;;;;;4.60;2.97;;;20.50;99.90;;;;;;5094838;28;20544;-65
2021/08/02 06:53:35;;;;;;;3.30;2.87;;;20.60;99.80;;;;;;5094151;28;20480;-66
2021/08/02 06:56:02;;;;;;;2.40;2.20;;;20.70;98.90;;;;;;5094671;28;20469;-65
2021/08/02 06:58:36;;;;;;;4.50;3.20;;;20.70;98.70;;;;;;5094077;28;20540;-65
2021/08/02 07:01:04;;;;;;;3.07;2.57;;;20.70;98.70;;;;;;5094563;28;21008;-65
2021/08/02 07:03:31;;;;;;;2.97;2.40;;;20.80;98.60;;;;;;5094212;28;20470;-66
2021/08/02 07:05:58;;;;;;;3.03;1.47;;;20.80;98.60;;;;;;5094381;28;20522;-66
2021/08/02 07:08:25;;;;;;;2.57;2.17;;;20.80;97.80;;;;;;5093929;28;20499;-65
2021/08/02 07:10:52;;;;;;;3.20;1.60;;;20.80;97.70;;;;;;5094536;28;20515;-66
2021/08/02 07:13:19;;;;;;;2.27;2.07;;;20.80;97.10;;;;;;5094218;28;20469;-66
2021/08/02 07:15:45;;;;;;;2.57;2.17;;;20.90;97.10;;;;;;5093766;28;21257;-66
2021/08/02 07:18:14;;;;;;;2.17;1.73;;;21.00;96.80;;;;;;5094315;28;20473;-66
2021/08/02 07:20:41;;;;;;;2.30;2.03;;;21.10;96.50;;;;;;5093890;28;20465;-66
2021/08/02 07:23:08;;;;;;;3.53;1.93;;;21.10;96.00;;;;;;5094254;28;20512;-65
2021/08/02 07:25:35;;;;;;;2.10;1.73;;;21.20;95.90;;;;;;5093641;28;20461;-65
2021/08/02 07:28:02;;;;;;;2.33;2.10;;;21.30;95.80;;;;;;5094034;28;20461;-66
2021/08/02 07:30:29;;;;;;;3.60;2.03;;;21.30;95.80;;;;;;5093556;28;20484;-66
2021/08/02 07:32:56;;;;;;;2.43;1.60;;;21.30;95.70;;;;;;5093952;28;20465;-66
2021/08/02 07:35:24;;;;;;;3.40;1.90;;;21.30;95.60;;;;;;5093368;28;20478;-66
2021/08/02 07:37:51;;;;;;;4.80;2.10;;;21.30;95.50;;;;;;5093866;28;20964;-66
2021/08/02 07:40:18;;;;;;;5.43;3.40;;;21.40;95.40;;;;;;5093361;28;20473;-66
2021/08/02 07:42:45;;;;;;;4.50;4.10;;;21.40;95.40;;;;;;5093263;28;20469;-65
2021/08/02 07:45:12;;;;;;;2.80;2.60;;;21.50;95.30;;;;;;5093674;28;20526;-65
2021/08/02 07:47:39;;;;;;;4.53;1.90;;;21.50;95.00;;;;;;5093126;28;20474;-65
2021/08/02 07:50:07;;;;;;;4.97;3.77;;;21.50;94.50;;;;;;5093773;28;20534;-65
2021/08/02 07:52:35;;;;;;;3.50;1.97;;;21.60;94.20;;;;;;5093136;28;20469;-66
2021/08/02 07:55:05;;;;;;;3.00;2.80;;;21.70;94.20;;;;;;5093588;28;20465;-66
2021/08/02 07:57:32;;;;;;;2.50;2.23;;;21.80;94.10;;;;;;5092888;28;20539;-66
2021/08/02 08:00:02;;;;;;;4.17;2.80;;;21.80;93.80;;;;;;5093565;28;20954;-66
2021/08/02 08:02:28;;;;;;;5.10;2.63;;;22.00;93.70;;;;;;5092957;28;20465;-66
2021/08/02 08:04:55;;;;;;;3.33;2.10;;;22.00;93.40;;;;;;5093545;28;20526;-66
2021/08/02 08:07:22;;;;;;;3.70;2.30;;;22.00;92.00;;;;;;5093345;28;20501;-66
2021/08/02 08:09:50;;;;;;;5.23;2.30;;;21.90;91.70;;;;;;5092701;28;20904;-66
2021/08/02 08:12:17;;;;;;;4.10;2.30;;;21.90;92.10;;;;;;5092993;28;20523;-66
2021/08/02 08:14:44;;;;;;;2.13;1.93;;;21.80;91.90;;;;;;5092885;28;20473;-66
2021/08/02 08:17:15;;;;;;;5.77;2.37;;;21.80;92.10;;;;;;5093250;28;20473;-65
2021/08/02 08:19:41;;;;;;;5.47;4.97;;;21.90;91.90;;;;;;5092652;28;20549;-66
2021/08/02 08:22:08;;;;;;;4.80;3.20;;;22.00;92.10;;;;;;5093084;28;20962;-64
2021/08/02 08:24:35;;;;;;;2.80;2.13;;;22.10;91.80;;;;;;5092773;28;20465;-65
2021/08/02 08:27:04;;;;;;;3.17;2.73;;;22.10;91.20;;;;;;5093155;28;20461;-65
2021/08/02 08:29:31;;;;;;;2.10;1.90;;;22.20;91.30;;;;;;5092418;28;20531;-65
2021/08/02 08:31:58;;;;;;;2.07;1.97;;;22.20;90.90;;;;;;5093142;28;20852;-65
2021/08/02 08:34:25;;;;;;;2.87;2.57;;;22.20;91.30;;;;;;5092786;28;20481;-65
2021/08/02 08:36:52;;;;;;;4.03;2.10;;;22.30;90.90;;;;;;5092897;28;20791;-65
2021/08/02 08:39:18;;;;;;;2.30;1.73;;;22.40;90.70;;;;;;5092962;28;20534;-65
2021/08/02 08:41:46;;;;;;;3.50;2.57;;;22.50;90.80;;;;;;5092668;28;21004;-65
2021/08/02 08:44:15;;;;;;;3.33;1.80;;;22.50;90.50;;;;;;5092762;28;20473;-65
2021/08/02 08:46:43;;;;;;;3.63;3.13;;;22.40;90.10;;;;;;5092204;28;20546;-66
2021/08/02 08:49:10;;;;;;;3.40;2.57;;;22.40;90.40;;;;;;5092777;28;20561;-65
2021/08/02 08:51:40;;;;;;;3.37;2.27;;;22.30;90.30;;;;;;5094980;28;20518;-65
2021/08/02 08:54:06;;;;;;;3.13;2.30;;;22.20;90.40;;;;;;5096831;28;20472;-65
2021/08/02 08:56:33;;;;;;;1.90;1.60;;;22.20;90.50;;;;;;5096524;28;20476;-65
2021/08/02 08:59:01;;;;;;;3.03;1.90;;;22.20;90.60;;;;;;5096870;28;20469;-65
2021/08/02 09:01:30;;;;;;;2.80;1.77;;;22.20;90.40;;;;;;5096931;28;20461;-65
2021/08/02 09:04:01;;;;;;;3.27;1.30;;;22.20;90.70;;;;;;5096527;28;20461;-65
2021/08/02 09:06:28;;;;;;;2.30;1.40;;;22.20;88.80;;;;;;5096960;28;20477;-65
2021/08/02 09:08:55;;;;;;;2.07;1.53;;;22.20;89.10;;;;;;5096238;28;20488;-65
2021/08/02 09:11:25;;;;;;;4.73;2.13;;;22.20;89.30;;;;;;5096824;28;20466;-65
2021/08/02 09:13:53;;;;;;;2.47;1.70;;;22.20;88.90;;;;;;5096111;28;20489;-65
2021/08/02 09:16:22;;;;;;;3.47;1.67;;;22.30;89.50;;;;;;5096580;28;20469;-65
2021/08/02 09:18:59;;;;;;;3.40;2.03;;;22.40;89.60;;;;;;5096176;28;20469;-66
2021/08/02 09:21:27;;;;;;;4.40;2.47;;;22.40;88.30;;;;;;5096540;28;20463;-66
2021/08/02 09:23:57;;;;;;;2.17;1.97;;;22.40;88.60;;;;;;5096008;28;20546;-65
2021/08/02 09:26:31;;;;;;;2.80;1.80;;;22.50;89.00;;;;;;5096502;28;20465;-65
2021/08/02 09:28:58;;;;;;;2.90;1.70;;;22.60;87.80;;;;;;5095958;28;20530;-66
2021/08/02 09:31:33;;;;;;;2.73;1.80;;;22.80;87.20;;;;;;5096315;28;20461;-65
2021/08/02 09:34:04;;;;;;;1.60;1.50;;;22.90;86.50;;;;;;5095855;28;21261;-66
2021/08/02 09:36:39;;;;;;;6.43;1.93;;;22.90;86.50;;;;;;5096209;28;20461;-66
2021/08/02 09:39:08;;;;;;;2.77;2.20;;;22.90;86.50;;;;;;5096035;28;21256;-66
2021/08/02 09:41:35;;;;;;;1.93;1.60;;;22.90;85.90;;;;;;5095993;28;20821;-67
2021/08/02 09:44:02;;;;;;;3.60;1.93;;;22.90;86.00;;;;;;5095575;28;20461;-66
2021/08/02 09:46:29;;;;;;;3.53;1.57;;;22.90;86.30;;;;;;5095739;28;20522;-66
2021/08/02 09:49:03;;;;;;;2.10;1.37;;;22.90;86.50;;;;;;5095503;28;20466;-66
2021/08/02 09:51:42;;;;;;;1.90;1.47;;;22.90;85.40;;;;;;5095791;28;20553;-67
2021/08/02 09:54:09;;;;;;;1.30;1.20;;;22.90;87.10;;;;;;5095464;28;21296;-65
2021/08/02 09:56:37;;;;;;;8.13;1.97;;;22.90;87.10;;;;;;5096079;28;20458;-65
2021/08/02 09:59:07;;;;;;;1.97;1.60;;;22.90;86.40;;;;;;5095275;28;20477;-66
2021/08/02 10:01:35;;;;;;;2.23;1.20;;;22.90;85.70;;;;;;5095321;28;20844;-66
2021/08/02 10:04:04;;;;;;;4.13;1.93;;;22.90;84.40;;;;;;5095413;28;20469;-66
2021/08/02 10:06:31;;;;;;;2.17;1.97;;;22.90;84.10;;;;;;5095500;28;20461;-66
2021/08/02 10:09:00;;;;;;;3.00;1.83;;;22.90;83.50;;;;;;5095092;28;21004;-65
2021/08/02 10:11:27;;;;;;;1.93;1.60;;;22.90;83.60;;;;;;5095688;28;21131;-65
2021/08/02 10:13:54;;;;;;;3.50;1.80;;;22.90;82.70;;;;;;5094974;28;20465;-66
2021/08/02 10:16:26;;;;;;;2.60;1.73;;;22.80;82.50;;;;;;5095607;28;20807;-66
2021/08/02 10:19:00;;;;;;;1.80;1.67;;;22.90;83.20;;;;;;5094890;28;20477;-65
2021/08/02 10:21:38;;;;;;;3.50;1.87;;;22.90;83.60;;;;;;5095397;28;20461;-66
2021/08/02 10:24:06;;;;;;;2.87;1.97;;;22.90;83.80;;;;;;5094931;28;20560;-66
2021/08/02 10:26:33;;;;;;;1.97;1.57;;;22.80;83.50;;;;;;5095127;28;20544;-67
2021/08/02 10:29:02;;;;;;;2.33;1.47;;;22.80;83.90;;;;;;5094577;28;20523;-64
2021/08/02 10:31:29;;;;;;;2.77;2.37;;;22.80;82.10;;;;;;5095073;28;20556;-65
2021/08/02 10:33:57;;;;;;;3.53;1.60;;;22.80;82.10;;;;;;5094595;28;20975;-66
2021/08/02 10:36:25;;;;;;;1.33;1.23;;;22.90;82.10;;;;;;5095246;28;20851;-65
2021/08/02 10:38:55;;;;;;;3.00;1.80;;;22.90;82.00;;;;;;5094455;28;20469;-65
2021/08/02 10:41:26;;;;;;;2.97;1.70;;;22.90;82.10;;;;;;5094847;28;20507;-66
2021/08/02 10:43:54;;;;;;;2.80;1.90;;;22.90;82.00;;;;;;5094472;28;21124;-65
2021/08/02 10:46:22;;;;;;;1.63;1.27;;;22.90;82.40;;;;;;5094700;28;20477;-65
2021/08/02 10:48:51;;;;;;;2.17;1.70;;;22.90;81.80;;;;;;5094477;28;20461;-65
2021/08/02 10:51:19;;;;;;;2.37;1.73;;;22.80;81.70;;;;;;5094690;28;20465;-65
2021/08/02 10:53:58;;;;;;;3.57;1.60;;;22.80;82.40;;;;;;5094670;28;20526;-66
2021/08/02 10:56:27;;;;;;;1.93;1.73;;;22.70;82.50;;;;;;5094959;28;20526;-65
2021/08/02 10:58:56;;;;;;;2.03;1.70;;;22.70;82.60;;;;;;5094053;28;20544;-66
2021/08/02 11:01:26;;;;;;;3.17;1.97;;;22.60;83.00;;;;;;5094506;28;20561;-66
2021/08/02 11:03:54;;;;;;;2.33;1.57;;;22.50;83.20;;;;;;5094164;28;20963;-66
2021/08/02 11:06:21;;;;;;;1.70;1.57;;;22.40;83.70;;;;;;5094221;28;20495;-65
2021/08/02 11:08:51;;;;;;;1.87;1.10;;;22.40;84.10;;;;;;5093903;28;20466;-65
2021/08/02 11:11:25;;;;;;;1.97;1.40;;;22.40;84.20;;;;;;5094367;28;20525;-66
2021/08/02 11:13:53;;;;;;;2.13;1.43;;;22.40;84.50;;;;;;5092750;28;20951;-66
2021/08/02 11:16:20;;;;;;;2.57;1.73;;;22.50;84.50;;;;;;5094333;28;20527;-66
2021/08/02 11:18:47;;;;;;;4.00;2.10;;;22.60;83.40;;;;;;5093699;28;20989;-66
2021/08/02 11:21:23;;;;;;;2.73;1.67;;;22.60;83.00;;;;;;5094057;28;20536;-66
2021/08/02 11:23:50;;;;;;;6.43;1.83;;;22.70;82.20;;;;;;5093530;28;20458;-66
2021/08/02 11:26:17;;;;;;;1.40;1.20;;;22.80;79.50;;;;;;5094052;28;20542;-65
2021/08/02 11:28:48;;;;;;;3.83;1.77;;;22.80;79.10;;;;;;5093203;28;20477;-65
2021/08/02 11:31:16;;;;;;;3.73;2.20;;;22.90;77.50;;;;;;5093835;28;20462;-65
2021/08/02 11:33:45;;;;;;;2.27;2.07;;;23.00;77.60;;;;;;5093551;28;20470;-65
2021/08/02 11:36:17;;;;;;;2.67;2.47;;;23.10;77.20;;;;;;5093714;28;20469;-66
2021/08/02 11:38:45;;;;;;;3.23;1.87;;;23.10;77.30;;;;;;5093334;28;20553;-66
2021/08/02 11:41:23;;;;;;;2.50;2.30;;;23.20;74.20;;;;;;5093847;28;20522;-66
2021/08/02 11:43:52;;;;;;;2.90;1.97;;;23.20;73.90;;;;;;5093243;28;21018;-66
2021/08/02 11:46:19;;;;;;;2.23;1.50;;;23.20;73.80;;;;;;5093508;28;20469;-65
2021/08/02 11:48:46;;;;;;;2.30;1.67;;;23.20;73.90;;;;;;5093263;28;20477;-66
2021/08/02 11:51:14;;;;;;;1.90;1.40;;;23.10;74.10;;;;;;5093624;28;20465;-65
2021/08/02 11:53:41;;;;;;;2.20;1.70;;;23.10;74.50;;;;;;5093200;28;20469;-68
2021/08/02 11:56:08;;;;;;;2.33;1.70;;;23.20;75.40;;;;;;5093508;28;21031;-66
2021/08/02 11:58:40;;;;;;;2.57;2.13;;;23.10;74.80;;;;;;5092980;28;20967;-66
2021/08/02 12:01:08;;;;;;;1.83;1.60;;;23.20;75.00;;;;;;5093514;28;20461;-65
2021/08/02 12:03:36;;;;;;;3.03;1.77;;;23.30;75.80;;;;;;5093262;28;20788;-65
2021/08/02 12:06:04;;;;;;;2.43;2.10;;;23.40;74.20;;;;;;5093655;28;20544;-66
2021/08/02 12:08:32;;;;;;;3.77;2.00;;;23.40;73.90;;;;;;5093242;28;20477;-66
2021/08/02 12:11:00;;;;;;;2.67;1.50;;;23.50;72.70;;;;;;5093243;28;20450;-66
2021/08/02 12:13:40;;;;;;;3.10;1.50;;;23.50;72.10;;;;;;5093206;28;20522;-66
2021/08/02 12:16:09;;;;;;;5.40;1.50;;;23.50;72.50;;;;;;5092953;28;20552;-65
2021/08/02 12:18:36;;;;;;;5.60;1.50;;;23.50;72.70;;;;;;5093173;28;20474;-66
2021/08/02 12:21:12;;;;;;;3.40;2.30;;;23.50;72.80;;;;;;5092695;28;20462;-65
2021/08/02 12:23:39;;;;;;;4.80;2.10;;;23.50;72.70;;;;;;5093084;28;21051;-67
2021/08/02 12:26:17;;;;;;;4.07;1.97;;;23.50;72.60;;;;;;5092373;28;20468;-65
2021/08/02 12:28:44;;;;;;;2.27;1.80;;;23.50;72.10;;;;;;5092595;28;20536;-66
2021/08/02 12:31:17;;;;;;;3.50;1.77;;;23.50;72.60;;;;;;5093150;28;20507;-66
2021/08/02 12:33:49;;;;;;;2.10;1.63;;;23.60;72.10;;;;;;5092532;28;20541;-65
2021/08/02 12:36:17;;;;;;;3.00;2.70;;;23.60;72.80;;;;;;5092900;28;20469;-66
2021/08/02 12:38:47;;;;;;;3.50;1.90;;;23.70;74.20;;;;;;5092657;28;20469;-66
2021/08/02 12:41:14;;;;;;;2.60;2.37;;;23.80;71.70;;;;;;5092924;28;20476;-67
2021/08/02 12:43:42;;;;;;;2.20;1.90;;;23.80;70.50;;;;;;5092830;28;20476;-66
2021/08/02 12:46:09;;;;;;;1.87;1.63;;;23.80;71.30;;;;;;5092543;28;20544;-65
2021/08/02 12:48:38;;;;;;;2.07;1.87;;;23.80;69.90;;;;;;5092782;28;20526;-65
2021/08/02 12:51:05;;;;;;;2.70;2.33;;;23.80;68.60;;;;;;5092327;28;20521;-67
2021/08/02 12:53:32;;;;;;;2.63;1.70;;;23.80;68.60;;;;;;5092767;28;20465;-66
2021/08/02 12:55:59;;;;;;;2.10;1.90;;;23.80;68.80;;;;;;5092340;28;20461;-66